Federal Sable — V7WS4 — position and weather

sailwx.info

Track history (hours):
 
Tides and Currents Weather Stations Pressure Air Temp Water Temp Dewpoint Dewpoint Depression Visibility Wind Speed Wind Dir Waves Ship Positions

Federal Sable

Last reported at 2016-Sep-18 10:28 UTC. Time now 2016-Sep-25 00:19 UTC.
Position N 36°51' W 014°60'.

Length 190 m; draft 10.6 m.

Type: Cargo ship. MMSI: 538004380.

Date/timePositionNaut miles runAvg speedWind from/ knotsBaromVisibWave heightAir tempDewpointWater temp
2016-Sep-18 10:28N 36°51' W 014°60'1010.7
2016-Sep-18 09:32N 36°60' W 014°54'12010.6
2016-Sep-17 22:07N 38°47' W 013°44'610.6
2016-Sep-17 21:33N 38°52' W 013°40'1110.6
2016-Sep-17 20:33N 39°02' W 013°34'1710.6
2016-Sep-17 18:54N 39°17' W 013°24'10010.5
2016-Sep-17 09:20N 40°46' W 012°24'810.7
2016-Sep-17 08:32N 40°54' W 012°19'  
2016-Sep-15 04:23N 48°48' W 005°52'7 8.9
2016-Sep-15 03:33N 48°54' W 005°46'17 8.3
2016-Sep-15 01:28N 49°03' W 005°24'27 9.2
2016-Sep-14 22:34N 49°17' W 004°48'1510.8
2016-Sep-14 21:12N 49°24' W 004°29'3710.1
2016-Sep-14 17:33N 49°43' W 003°40'8 8.5
2016-Sep-14 16:34N 49°47' W 003°29'27 9.1
2016-Sep-14 13:34N 49°60' W 002°51'5711.3
2016-Sep-14 08:33N 50°15' W 001°26'19 7.5
2016-Sep-14 06:03N 50°20' W 000°58'21 8.6
2016-Sep-14 03:33N 50°25' W 000°25'5610.8
2016-Sep-13 22:23N 50°47' E 000°56'17 9.0
2016-Sep-13 20:33N 50°58' E 001°16'2411.8
2016-Sep-13 18:34N 51°13' E 001°44'1413.5
2016-Sep-13 17:34N 51°24' E 001°58'1010.0
2016-Sep-13 16:33N 51°21' E 002°13'5711.4
2016-Sep-13 11:33N 51°22' E 003°45'7 3.4
2016-Sep-13 09:33N 51°16' E 003°51'0 0.0
2016-Sep-13 07:33N 51°16' E 003°51'0 0.0
2016-Sep-13 06:33N 51°16' E 003°51'0 0.0
2016-Sep-13 04:33N 51°16' E 003°51'0 0.0
2016-Sep-13 02:30N 51°16' E 003°51'0 0.0
2016-Sep-12 23:33N 51°16' E 003°51'0 0.0
2016-Sep-12 21:33N 51°16' E 003°51'0 0.0
2016-Sep-12 19:30N 51°16' E 003°51'0 0.0
2016-Sep-12 17:30N 51°16' E 003°51'0 0.0
2016-Sep-12 14:33N 51°16' E 003°51'0 0.0
2016-Sep-12 13:33N 51°16' E 003°51'0 0.0
2016-Sep-12 12:33N 51°16' E 003°51'0 0.0
2016-Sep-12 11:33N 51°16' E 003°51'0 0.0
2016-Sep-12 10:33N 51°16' E 003°51'0 0.0
2016-Sep-12 07:33N 51°16' E 003°51'0 0.0
2016-Sep-12 06:33N 51°16' E 003°51'0 0.0
2016-Sep-12 03:33N 51°16' E 003°51'0 0.0
2016-Sep-12 01:33N 51°16' E 003°51'0 0.0
2016-Sep-11 23:33N 51°16' E 003°51'0 0.0
2016-Sep-11 22:33N 51°16' E 003°51'0 0.0
2016-Sep-11 21:33N 51°16' E 003°51'0 0.0
2016-Sep-11 20:33N 51°16' E 003°51'0 0.0
2016-Sep-11 19:33N 51°16' E 003°51'0 0.0
2016-Sep-11 18:33N 51°16' E 003°51'0 0.0
2016-Sep-11 17:33N 51°16' E 003°51'0 0.0
2016-Sep-11 16:33N 51°16' E 003°51'0 0.0
2016-Sep-11 15:33N 51°16' E 003°51'0 0.0
2016-Sep-11 14:30N 51°16' E 003°51'0 0.0
2016-Sep-11 13:33N 51°16' E 003°51'0 0.0
2016-Sep-11 12:33N 51°16' E 003°51'0 0.0
2016-Sep-11 11:33N 51°16' E 003°51'0 0.0
2016-Sep-11 08:33N 51°16' E 003°51'0 0.0
2016-Sep-11 07:30N 51°16' E 003°51'0 0.0
2016-Sep-11 03:33N 51°16' E 003°51'0 0.0
2016-Sep-11 02:33N 51°16' E 003°51'0 0.0
2016-Sep-11 01:30N 51°16' E 003°51'0 0.0
2016-Sep-11 00:33N 51°16' E 003°51'0 0.0
2016-Sep-10 23:31N 51°16' E 003°51'0 0.0
2016-Sep-10 22:31N 51°16' E 003°51'0 0.0
2016-Sep-10 21:31N 51°16' E 003°51'0 0.0
2016-Sep-10 20:31N 51°16' E 003°51'0 0.0
2016-Sep-10 19:31N 51°16' E 003°51'0 0.0
2016-Sep-10 18:31N 51°16' E 003°51'0 0.0
2016-Sep-10 17:31N 51°16' E 003°51'0 0.0
2016-Sep-10 16:31N 51°16' E 003°51'0 0.0
2016-Sep-10 15:28N 51°16' E 003°51'0 0.0
2016-Sep-10 14:31N 51°16' E 003°51'0 0.0
2016-Sep-10 13:31N 51°16' E 003°51'0 0.0
2016-Sep-10 12:31N 51°16' E 003°51'0 0.0
2016-Sep-10 11:31N 51°16' E 003°51'0 0.0
2016-Sep-10 10:31N 51°16' E 003°51'0 0.0
2016-Sep-10 09:31N 51°16' E 003°51'0 0.0
2016-Sep-10 08:31N 51°16' E 003°51'0 0.0
2016-Sep-10 07:31N 51°16' E 003°51'0 0.0
2016-Sep-10 06:31N 51°16' E 003°51'0 0.0
2016-Sep-10 05:31N 51°16' E 003°51'0 0.0
2016-Sep-10 04:31N 51°16' E 003°51'0 0.0
2016-Sep-10 03:31N 51°16' E 003°51'0 0.0
2016-Sep-10 02:31N 51°16' E 003°51'0 0.0
2016-Sep-10 01:31N 51°16' E 003°51'0 0.0
2016-Sep-10 00:31N 51°16' E 003°51'0 0.0
2016-Sep-09 23:31N 51°16' E 003°51'0 0.0
2016-Sep-09 22:31N 51°16' E 003°51'0 0.0
2016-Sep-09 21:31N 51°16' E 003°51'0 0.0
2016-Sep-09 20:31N 51°16' E 003°51'0 0.0
2016-Sep-09 19:31N 51°16' E 003°51'0 0.0
2016-Sep-09 18:31N 51°16' E 003°51'0 0.0
2016-Sep-09 17:31N 51°16' E 003°51'0 0.0
2016-Sep-09 16:31N 51°16' E 003°51'0 0.0
2016-Sep-09 15:31N 51°16' E 003°51'0 0.0
2016-Sep-09 14:31N 51°16' E 003°51'0 0.0
2016-Sep-09 13:31N 51°16' E 003°51'0 0.0
2016-Sep-09 12:31N 51°16' E 003°51'0 0.0
2016-Sep-09 11:31N 51°16' E 003°51'0 0.0
2016-Sep-09 10:31N 51°16' E 003°51'0 0.0
2016-Sep-09 09:31N 51°16' E 003°51'0 0.0
2016-Sep-09 08:31N 51°16' E 003°51'0 0.0
2016-Sep-09 07:31N 51°16' E 003°51'0 0.0
2016-Sep-09 06:31N 51°16' E 003°51'0 0.0
2016-Sep-09 05:31N 51°16' E 003°51'0 0.0
2016-Sep-09 04:31N 51°16' E 003°51'0 0.0
2016-Sep-09 03:31N 51°16' E 003°51'0 0.0
2016-Sep-09 02:31N 51°16' E 003°51'0 0.0
2016-Sep-09 01:31N 51°16' E 003°51'0 0.0
2016-Sep-09 00:31N 51°16' E 003°51'0 0.0
2016-Sep-08 23:32N 51°16' E 003°51'0 0.0
2016-Sep-08 22:32N 51°16' E 003°51'0 0.0
2016-Sep-08 21:32N 51°16' E 003°51'0 0.0
2016-Sep-08 20:32N 51°16' E 003°51'0 0.0
2016-Sep-08 19:32N 51°16' E 003°51'0 0.0
2016-Sep-08 18:32N 51°16' E 003°51'0 0.0
2016-Sep-08 17:32N 51°16' E 003°51'0 0.0
2016-Sep-08 16:32N 51°16' E 003°51'0 0.0
2016-Sep-08 15:32N 51°16' E 003°51'0 0.0
2016-Sep-08 14:32N 51°16' E 003°51'0 0.0
2016-Sep-08 13:32N 51°16' E 003°51'0 0.0
2016-Sep-08 12:32N 51°16' E 003°51'0 0.0
2016-Sep-08 11:32N 51°16' E 003°51'0 0.0
2016-Sep-08 10:32N 51°16' E 003°51'  
Track history (hours):
 
Tides and Currents Weather Stations Pressure Air Temp Water Temp Dewpoint Dewpoint Depression Visibility Wind Speed Wind Dir Waves Ship Positions

Federal Sable

Last reported at 2016-Sep-18 10:28 UTC. Time now 2016-Sep-25 00:19 UTC.
Position N 36°51' W 014°60'.

Length 190 m; draft 10.6 m.

Type: Cargo ship. MMSI: 538004380.

Date/timePositionNaut miles runAvg speedWind from/ knotsBaromVisibWave heightAir tempDewpointWater temp
2016-Sep-18 10:28N 36°51' W 014°60'1010.7
2016-Sep-18 09:32N 36°60' W 014°54'12010.6
2016-Sep-17 22:07N 38°47' W 013°44'610.6
2016-Sep-17 21:33N 38°52' W 013°40'1110.6
2016-Sep-17 20:33N 39°02' W 013°34'1710.6
2016-Sep-17 18:54N 39°17' W 013°24'10010.5
2016-Sep-17 09:20N 40°46' W 012°24'810.7
2016-Sep-17 08:32N 40°54' W 012°19'  
2016-Sep-15 04:23N 48°48' W 005°52'7 8.9
2016-Sep-15 03:33N 48°54' W 005°46'17 8.3
2016-Sep-15 01:28N 49°03' W 005°24'27 9.2
2016-Sep-14 22:34N 49°17' W 004°48'1510.8
2016-Sep-14 21:12N 49°24' W 004°29'3710.1
2016-Sep-14 17:33N 49°43' W 003°40'8 8.5
2016-Sep-14 16:34N 49°47' W 003°29'27 9.1
2016-Sep-14 13:34N 49°60' W 002°51'5711.3
2016-Sep-14 08:33N 50°15' W 001°26'19 7.5
2016-Sep-14 06:03N 50°20' W 000°58'21 8.6
2016-Sep-14 03:33N 50°25' W 000°25'5610.8
2016-Sep-13 22:23N 50°47' E 000°56'17 9.0
2016-Sep-13 20:33N 50°58' E 001°16'2411.8
2016-Sep-13 18:34N 51°13' E 001°44'1413.5
2016-Sep-13 17:34N 51°24' E 001°58'1010.0
2016-Sep-13 16:33N 51°21' E 002°13'5711.4
2016-Sep-13 11:33N 51°22' E 003°45'7 3.4
2016-Sep-13 09:33N 51°16' E 003°51'0 0.0
2016-Sep-13 07:33N 51°16' E 003°51'0 0.0
2016-Sep-13 06:33N 51°16' E 003°51'0 0.0
2016-Sep-13 04:33N 51°16' E 003°51'0 0.0
2016-Sep-13 02:30N 51°16' E 003°51'0 0.0
2016-Sep-12 23:33N 51°16' E 003°51'0 0.0
2016-Sep-12 21:33N 51°16' E 003°51'0 0.0
2016-Sep-12 19:30N 51°16' E 003°51'0 0.0
2016-Sep-12 17:30N 51°16' E 003°51'0 0.0
2016-Sep-12 14:33N 51°16' E 003°51'0 0.0
2016-Sep-12 13:33N 51°16' E 003°51'0 0.0
2016-Sep-12 12:33N 51°16' E 003°51'0 0.0
2016-Sep-12 11:33N 51°16' E 003°51'0 0.0
2016-Sep-12 10:33N 51°16' E 003°51'0 0.0
2016-Sep-12 07:33N 51°16' E 003°51'0 0.0
2016-Sep-12 06:33N 51°16' E 003°51'0 0.0
2016-Sep-12 03:33N 51°16' E 003°51'0 0.0
2016-Sep-12 01:33N 51°16' E 003°51'0 0.0
2016-Sep-11 23:33N 51°16' E 003°51'0 0.0
2016-Sep-11 22:33N 51°16' E 003°51'0 0.0
2016-Sep-11 21:33N 51°16' E 003°51'0 0.0
2016-Sep-11 20:33N 51°16' E 003°51'0 0.0
2016-Sep-11 19:33N 51°16' E 003°51'0 0.0
2016-Sep-11 18:33N 51°16' E 003°51'0 0.0
2016-Sep-11 17:33N 51°16' E 003°51'0 0.0
2016-Sep-11 16:33N 51°16' E 003°51'0 0.0
2016-Sep-11 15:33N 51°16' E 003°51'0 0.0
2016-Sep-11 14:30N 51°16' E 003°51'0 0.0
2016-Sep-11 13:33N 51°16' E 003°51'0 0.0
2016-Sep-11 12:33N 51°16' E 003°51'0 0.0
2016-Sep-11 11:33N 51°16' E 003°51'0 0.0
2016-Sep-11 08:33N 51°16' E 003°51'0 0.0
2016-Sep-11 07:30N 51°16' E 003°51'0 0.0
2016-Sep-11 03:33N 51°16' E 003°51'0 0.0
2016-Sep-11 02:33N 51°16' E 003°51'0 0.0
2016-Sep-11 01:30N 51°16' E 003°51'0 0.0
2016-Sep-11 00:33N 51°16' E 003°51'0 0.0
2016-Sep-10 23:31N 51°16' E 003°51'0 0.0
2016-Sep-10 22:31N 51°16' E 003°51'0 0.0
2016-Sep-10 21:31N 51°16' E 003°51'0 0.0
2016-Sep-10 20:31N 51°16' E 003°51'0 0.0
2016-Sep-10 19:31N 51°16' E 003°51'0 0.0
2016-Sep-10 18:31N 51°16' E 003°51'0 0.0
2016-Sep-10 17:31N 51°16' E 003°51'0 0.0
2016-Sep-10 16:31N 51°16' E 003°51'0 0.0
2016-Sep-10 15:28N 51°16' E 003°51'0 0.0
2016-Sep-10 14:31N 51°16' E 003°51'0 0.0
2016-Sep-10 13:31N 51°16' E 003°51'0 0.0
2016-Sep-10 12:31N 51°16' E 003°51'0 0.0
2016-Sep-10 11:31N 51°16' E 003°51'0 0.0
2016-Sep-10 10:31N 51°16' E 003°51'0 0.0
2016-Sep-10 09:31N 51°16' E 003°51'0 0.0
2016-Sep-10 08:31N 51°16' E 003°51'0 0.0
2016-Sep-10 07:31N 51°16' E 003°51'0 0.0
2016-Sep-10 06:31N 51°16' E 003°51'0 0.0
2016-Sep-10 05:31N 51°16' E 003°51'0 0.0
2016-Sep-10 04:31N 51°16' E 003°51'0 0.0
2016-Sep-10 03:31N 51°16' E 003°51'0 0.0
2016-Sep-10 02:31N 51°16' E 003°51'0 0.0
2016-Sep-10 01:31N 51°16' E 003°51'0 0.0
2016-Sep-10 00:31N 51°16' E 003°51'0 0.0
2016-Sep-09 23:31N 51°16' E 003°51'0 0.0
2016-Sep-09 22:31N 51°16' E 003°51'0 0.0
2016-Sep-09 21:31N 51°16' E 003°51'0 0.0
2016-Sep-09 20:31N 51°16' E 003°51'0 0.0
2016-Sep-09 19:31N 51°16' E 003°51'0 0.0
2016-Sep-09 18:31N 51°16' E 003°51'0 0.0
2016-Sep-09 17:31N 51°16' E 003°51'0 0.0
2016-Sep-09 16:31N 51°16' E 003°51'0 0.0
2016-Sep-09 15:31N 51°16' E 003°51'0 0.0
2016-Sep-09 14:31N 51°16' E 003°51'0 0.0
2016-Sep-09 13:31N 51°16' E 003°51'0 0.0
2016-Sep-09 12:31N 51°16' E 003°51'0 0.0
2016-Sep-09 11:31N 51°16' E 003°51'0 0.0
2016-Sep-09 10:31N 51°16' E 003°51'0 0.0
2016-Sep-09 09:31N 51°16' E 003°51'0 0.0
2016-Sep-09 08:31N 51°16' E 003°51'0 0.0
2016-Sep-09 07:31N 51°16' E 003°51'0 0.0
2016-Sep-09 06:31N 51°16' E 003°51'0 0.0
2016-Sep-09 05:31N 51°16' E 003°51'0 0.0
2016-Sep-09 04:31N 51°16' E 003°51'0 0.0
2016-Sep-09 03:31N 51°16' E 003°51'0 0.0
2016-Sep-09 02:31N 51°16' E 003°51'0 0.0
2016-Sep-09 01:31N 51°16' E 003°51'0 0.0
2016-Sep-09 00:31N 51°16' E 003°51'0 0.0
2016-Sep-08 23:32N 51°16' E 003°51'0 0.0
2016-Sep-08 22:32N 51°16' E 003°51'0 0.0
2016-Sep-08 21:32N 51°16' E 003°51'0 0.0
2016-Sep-08 20:32N 51°16' E 003°51'0 0.0
2016-Sep-08 19:32N 51°16' E 003°51'0 0.0
2016-Sep-08 18:32N 51°16' E 003°51'0 0.0
2016-Sep-08 17:32N 51°16' E 003°51'0 0.0
2016-Sep-08 16:32N 51°16' E 003°51'0 0.0
2016-Sep-08 15:32N 51°16' E 003°51'0 0.0
2016-Sep-08 14:32N 51°16' E 003°51'0 0.0
2016-Sep-08 13:32N 51°16' E 003°51'0 0.0
2016-Sep-08 12:32N 51°16' E 003°51'0 0.0
2016-Sep-08 11:32N 51°16' E 003°51'0 0.0
2016-Sep-08 10:32N 51°16' E 003°51'  

Dump ship's entire track history